createdAt,value
2023-02-06T00:00:44.724Z,27.00
2023-02-06T00:01:49.680Z,26.00
2023-02-06T00:02:52.323Z,27.25
2023-02-06T00:03:55.308Z,26.00
2023-02-06T00:04:57.955Z,27.00
2023-02-06T00:06:02.121Z,27.00
2023-02-06T00:07:04.793Z,26.00
2023-02-06T00:08:08.287Z,28.00
2023-02-06T00:09:11.523Z,28.50
2023-02-06T00:10:14.162Z,29.00
2023-02-06T00:11:18.174Z,27.50
2023-02-06T00:12:20.931Z,27.00
2023-02-06T00:13:23.922Z,26.75
2023-02-06T00:14:26.577Z,29.00
2023-02-06T00:15:29.239Z,31.00
2023-02-06T00:16:34.058Z,30.00
2023-02-06T00:17:37.961Z,33.00
2023-02-06T00:18:40.584Z,31.50
2023-02-06T00:19:44.268Z,31.50
2023-02-06T00:20:46.966Z,31.75
2023-02-06T00:21:49.634Z,31.00
2023-02-06T00:22:52.247Z,31.00
2023-02-06T00:23:57.008Z,28.00
2023-02-06T00:25:00.052Z,29.00
2023-02-06T00:26:02.753Z,26.75
2023-02-06T00:27:05.399Z,24.00
2023-02-06T00:28:08.069Z,23.75
2023-02-06T00:29:10.906Z,24.00
2023-02-06T00:30:14.046Z,23.00
2023-02-06T00:31:18.408Z,24.50
2023-02-06T00:32:21.366Z,24.00
2023-02-06T00:33:24.122Z,24.25
2023-02-06T00:34:26.877Z,25.25
2023-02-06T00:35:29.529Z,24.75
2023-02-06T00:36:33.591Z,24.00
2023-02-06T00:37:36.209Z,24.25
2023-02-06T00:38:39.222Z,25.50
2023-02-06T00:39:41.996Z,25.00
2023-02-06T00:40:44.658Z,24.00
2023-02-06T00:41:47.350Z,26.50
2023-02-06T00:42:50.015Z,26.00
2023-02-06T00:43:52.657Z,25.25
2023-02-06T00:44:55.302Z,24.75
2023-02-06T00:45:59.306Z,24.00
2023-02-06T00:47:02.429Z,22.00
2023-02-06T00:48:05.146Z,23.00
2023-02-06T00:49:07.863Z,23.75
2023-02-06T00:50:10.739Z,24.00
2023-02-06T00:51:13.442Z,24.00
2023-02-06T00:52:16.073Z,23.25
2023-02-06T00:53:19.066Z,24.00
2023-02-06T00:54:22.031Z,24.00
2023-02-06T00:55:24.714Z,24.00
2023-02-06T00:56:27.427Z,25.25
2023-02-06T00:57:30.068Z,24.00
2023-02-06T00:58:32.719Z,23.00
2023-02-06T00:59:35.370Z,24.00
2023-02-06T01:00:38.033Z,24.25
2023-02-06T01:01:40.720Z,24.50
2023-02-06T01:02:43.441Z,24.00
2023-02-06T01:03:46.135Z,24.25
2023-02-06T01:04:48.773Z,25.50
2023-02-06T01:05:51.477Z,25.00
2023-02-06T01:06:54.181Z,24.00
2023-02-06T01:07:57.046Z,24.00
2023-02-06T01:08:59.751Z,24.00
2023-02-06T01:10:02.436Z,24.00
2023-02-06T01:11:14.465Z,24.00
2023-02-06T01:12:17.128Z,21.00
2023-02-06T01:13:19.892Z,23.00
2023-02-06T01:14:22.866Z,23.00
2023-02-06T01:15:25.769Z,23.25
2023-02-06T01:16:28.989Z,26.00
2023-02-06T01:17:33.816Z,24.00
2023-02-06T01:18:36.544Z,23.50
2023-02-06T01:19:39.834Z,23.00
2023-02-06T01:20:42.519Z,22.00
2023-02-06T01:21:45.211Z,22.00
2023-02-06T01:22:48.011Z,24.00
2023-02-06T01:23:52.847Z,24.00
2023-02-06T01:24:55.639Z,24.75
2023-02-06T01:25:58.255Z,24.00
2023-02-06T01:27:00.889Z,24.00
2023-02-06T01:28:03.660Z,24.75
2023-02-06T01:29:06.310Z,24.00
2023-02-06T01:30:09.840Z,24.00
2023-02-06T01:31:18.721Z,22.25
2023-02-06T01:32:21.544Z,24.00
2023-02-06T01:33:24.209Z,26.25
2023-02-06T01:34:26.888Z,25.00
2023-02-06T01:35:30.681Z,25.00
2023-02-06T01:36:33.508Z,21.50
2023-02-06T01:37:37.143Z,22.25
2023-02-06T01:38:40.981Z,23.00
2023-02-06T01:39:43.697Z,22.00
2023-02-06T01:40:46.338Z,23.75
2023-02-06T01:41:49.145Z,24.00
2023-02-06T01:42:51.980Z,26.25
2023-02-06T01:44:13.243Z,29.00
2023-02-06T01:45:37.565Z,26.00
2023-02-06T01:46:42.159Z,24.75
2023-02-06T01:47:44.887Z,25.25
2023-02-06T01:48:51.396Z,28.00
2023-02-06T01:49:54.015Z,28.50
2023-02-06T01:50:58.946Z,29.00
2023-02-06T01:52:25.128Z,29.25
2023-02-06T01:53:29.289Z,28.00
2023-02-06T01:54:32.610Z,28.00
2023-02-06T01:55:39.329Z,28.50
2023-02-06T01:56:55.561Z,29.00
2023-02-06T01:57:58.566Z,29.00
2023-02-06T01:59:04.212Z,26.75
2023-02-06T02:00:11.817Z,25.75
2023-02-06T02:01:14.549Z,24.25
2023-02-06T02:02:17.473Z,24.75
2023-02-06T02:03:20.284Z,24.00
2023-02-06T02:04:25.495Z,25.00
2023-02-06T02:05:28.222Z,22.00
2023-02-06T02:06:31.379Z,22.00
2023-02-06T02:07:37.353Z,24.00
2023-02-06T02:08:49.080Z,24.00
2023-02-06T02:09:51.730Z,22.50
2023-02-06T02:10:54.472Z,21.50
2023-02-06T02:11:57.148Z,23.50
2023-02-06T02:12:59.898Z,21.50
2023-02-06T02:14:04.604Z,22.50
2023-02-06T02:15:07.646Z,22.00
2023-02-06T02:16:38.475Z,24.00
2023-02-06T02:18:03.876Z,21.00
2023-02-06T02:19:37.481Z,22.75
2023-02-06T02:20:53.095Z,23.00
2023-02-06T02:21:55.770Z,23.00
2023-02-06T02:23:17.789Z,24.50
2023-02-06T02:24:32.432Z,23.00
2023-02-06T02:26:11.288Z,24.50
2023-02-06T02:27:40.521Z,23.00
2023-02-06T02:29:01.233Z,23.00
2023-02-06T02:30:11.647Z,22.00
2023-02-06T02:31:48.047Z,23.25
2023-02-06T02:33:09.069Z,23.00
2023-02-06T02:34:42.701Z,22.25
2023-02-06T02:36:39.479Z,23.00
2023-02-06T02:38:07.213Z,22.00
2023-02-06T02:39:30.724Z,21.00
2023-02-06T02:40:59.542Z,17.00
2023-02-06T02:42:20.698Z,16.25
2023-02-06T02:43:45.080Z,16.00
2023-02-06T02:44:51.311Z,16.00
2023-02-06T02:46:09.866Z,17.75
2023-02-06T02:47:17.264Z,16.00
2023-02-06T02:48:25.389Z,17.75
2023-02-06T02:49:32.772Z,18.50
2023-02-06T02:50:36.644Z,19.00
2023-02-06T02:51:41.544Z,20.25
2023-02-06T02:52:44.380Z,21.00
2023-02-06T02:53:47.427Z,24.00
2023-02-06T02:54:50.052Z,23.00
2023-02-06T02:55:52.724Z,22.00
2023-02-06T02:57:02.352Z,22.00
2023-02-06T02:58:10.379Z,22.00
2023-02-06T02:59:29.568Z,19.00
2023-02-06T03:00:37.864Z,20.00
2023-02-06T03:01:52.951Z,22.00
2023-02-06T03:02:58.555Z,20.75
2023-02-06T03:04:07.015Z,21.00
2023-02-06T03:05:14.110Z,20.00
2023-02-06T03:06:39.141Z,21.00
2023-02-06T03:07:54.331Z,18.75
2023-02-06T03:09:15.367Z,19.00
2023-02-06T03:10:57.982Z,19.00
2023-02-06T03:12:13.983Z,20.00
2023-02-06T03:13:32.952Z,19.00
2023-02-06T03:14:43.582Z,19.50
2023-02-06T03:16:05.426Z,19.00
2023-02-06T03:17:11.903Z,18.25
2023-02-06T03:18:23.299Z,21.00
2023-02-06T03:19:37.886Z,21.00
2023-02-06T03:20:44.788Z,23.00
2023-02-06T03:21:49.439Z,20.00
2023-02-06T03:22:53.414Z,20.00
2023-02-06T03:24:00.691Z,22.00
2023-02-06T03:25:08.128Z,21.00
2023-02-06T03:26:14.844Z,23.00
2023-02-06T03:27:19.471Z,21.50
2023-02-06T03:28:28.505Z,21.00
2023-02-06T03:29:35.113Z,21.00
2023-02-06T03:30:41.044Z,18.00
2023-02-06T03:31:47.557Z,20.50
2023-02-06T03:32:55.722Z,20.00
2023-02-06T03:34:23.656Z,19.00
2023-02-06T03:35:34.728Z,18.25
2023-02-06T03:36:37.754Z,18.00
2023-02-06T03:37:41.170Z,20.00
2023-02-06T03:38:46.755Z,18.50
2023-02-06T03:39:49.626Z,21.50
2023-02-06T03:40:54.686Z,19.00
2023-02-06T03:42:00.754Z,18.50
2023-02-06T03:43:06.928Z,18.00
2023-02-06T03:44:14.307Z,18.25
2023-02-06T03:45:24.295Z,18.00
2023-02-06T03:46:30.093Z,17.00
2023-02-06T03:47:34.528Z,17.50
2023-02-06T03:48:42.128Z,18.50
2023-02-06T03:49:48.823Z,18.00
2023-02-06T03:50:55.339Z,18.00
2023-02-06T03:52:05.063Z,17.75
2023-02-06T03:53:09.430Z,17.75
2023-02-06T03:54:15.179Z,16.00
2023-02-06T03:55:22.305Z,16.25
2023-02-06T03:57:16.200Z,17.25
2023-02-06T03:58:19.143Z,16.25
2023-02-06T03:59:22.424Z,17.00
2023-02-06T04:00:26.508Z,18.00
2023-02-06T04:01:29.353Z,18.75
2023-02-06T04:02:33.155Z,21.00
2023-02-06T04:03:36.426Z,21.75
2023-02-06T04:04:42.058Z,21.00
2023-02-06T04:05:44.952Z,20.00
2023-02-06T04:06:48.258Z,18.50
2023-02-06T04:07:51.344Z,19.50
2023-02-06T04:08:54.653Z,18.50
2023-02-06T04:09:57.318Z,18.50
2023-02-06T04:11:00.096Z,19.50
2023-02-06T04:12:02.737Z,21.00
2023-02-06T04:13:05.557Z,19.00
2023-02-06T04:14:08.407Z,18.00
2023-02-06T04:15:11.354Z,18.50
2023-02-06T04:16:14.215Z,18.00
2023-02-06T04:17:31.338Z,16.75
2023-02-06T04:18:39.833Z,20.50
2023-02-06T04:19:43.388Z,20.25
2023-02-06T04:20:46.044Z,18.50
2023-02-06T04:21:48.718Z,21.00
2023-02-06T04:22:51.487Z,23.00
2023-02-06T04:23:54.300Z,23.00
2023-02-06T04:24:56.924Z,19.00
2023-02-06T04:25:59.595Z,21.00
2023-02-06T04:27:02.248Z,20.00
2023-02-06T04:28:05.309Z,17.25
2023-02-06T04:29:08.301Z,16.00
2023-02-06T04:30:11.542Z,17.00
2023-02-06T04:31:20.870Z,17.00
2023-02-06T04:32:23.568Z,17.00
2023-02-06T04:33:26.257Z,18.00
2023-02-06T04:34:32.825Z,18.00
2023-02-06T04:35:35.838Z,18.50
2023-02-06T04:36:45.903Z,19.00
2023-02-06T04:37:55.505Z,18.50
2023-02-06T04:38:58.143Z,18.00
2023-02-06T04:40:00.773Z,19.25
2023-02-06T04:41:08.107Z,19.00
2023-02-06T04:42:16.982Z,18.50
2023-02-06T04:43:19.606Z,21.00
2023-02-06T04:44:22.903Z,18.50
2023-02-06T04:45:25.604Z,21.50
2023-02-06T04:46:28.314Z,20.75
2023-02-06T04:47:37.853Z,20.75
2023-02-06T04:48:40.476Z,20.75
2023-02-06T04:49:43.502Z,19.00
2023-02-06T04:50:46.156Z,21.00
2023-02-06T04:51:48.866Z,19.00
2023-02-06T04:52:57.887Z,19.00
2023-02-06T04:54:00.515Z,19.00
2023-02-06T04:55:03.175Z,19.00
2023-02-06T04:56:07.669Z,18.75
2023-02-06T04:57:10.294Z,18.50
2023-02-06T04:58:19.878Z,19.00
2023-02-06T04:59:22.530Z,19.00
2023-02-06T05:00:25.239Z,19.00
2023-02-06T05:01:28.065Z,21.00
2023-02-06T05:02:31.868Z,20.75
2023-02-06T05:03:40.937Z,23.25
2023-02-06T05:04:43.640Z,26.00
2023-02-06T05:05:46.493Z,28.00
2023-02-06T05:06:49.097Z,28.00
2023-02-06T05:07:51.818Z,29.00
2023-02-06T05:09:01.139Z,28.00
2023-02-06T05:10:04.364Z,24.25
2023-02-06T05:11:07.408Z,25.50
2023-02-06T05:12:11.213Z,24.25
2023-02-06T05:13:14.889Z,25.50
2023-02-06T05:14:24.058Z,24.00
2023-02-06T05:15:26.705Z,24.00
2023-02-06T05:16:29.425Z,24.00
2023-02-06T05:17:32.172Z,25.00
2023-02-06T05:18:35.306Z,23.00
2023-02-06T05:19:44.917Z,24.00
2023-02-06T05:20:47.626Z,26.00
2023-02-06T05:21:50.413Z,30.00
2023-02-06T05:22:53.035Z,34.25
2023-02-06T05:23:55.854Z,34.75
2023-02-06T05:25:04.922Z,31.00
2023-02-06T05:26:07.631Z,28.00
2023-02-06T05:27:10.394Z,28.00
2023-02-06T05:28:13.173Z,30.50
2023-02-06T05:29:16.316Z,31.25
2023-02-06T05:30:25.914Z,31.00
2023-02-06T05:31:28.631Z,30.00
2023-02-06T05:32:31.317Z,27.00
2023-02-06T05:33:34.116Z,23.25
2023-02-06T05:34:36.985Z,23.00
2023-02-06T05:35:47.130Z,22.00
2023-02-06T05:36:56.070Z,22.50
2023-02-06T05:38:12.050Z,20.00
2023-02-06T05:39:15.030Z,20.00
2023-02-06T05:40:18.146Z,23.00
2023-02-06T05:41:27.132Z,24.50
2023-02-06T05:42:29.812Z,24.00
2023-02-06T05:43:32.449Z,26.00
2023-02-06T05:44:35.081Z,25.25
2023-02-06T05:45:38.167Z,23.25
2023-02-06T05:46:47.054Z,24.00
2023-02-06T05:47:49.726Z,25.00
2023-02-06T05:48:52.723Z,25.50
2023-02-06T05:49:55.658Z,25.50
2023-02-06T05:50:59.423Z,25.50
2023-02-06T05:52:09.068Z,25.50
2023-02-06T05:53:11.759Z,25.00
2023-02-06T05:54:16.412Z,25.00
2023-02-06T05:55:19.428Z,29.75
2023-02-06T05:56:22.086Z,28.00
2023-02-06T05:57:32.192Z,26.00
2023-02-06T05:58:35.085Z,24.00
2023-02-06T05:59:37.789Z,22.25
2023-02-06T06:00:40.711Z,22.50
2023-02-06T06:01:43.448Z,23.00
2023-02-06T06:02:53.031Z,24.50
2023-02-06T06:03:56.180Z,27.75
2023-02-06T06:04:58.944Z,28.00
2023-02-06T06:06:02.128Z,27.00
2023-02-06T06:07:05.256Z,24.25
2023-02-06T06:08:15.006Z,23.75
2023-02-06T06:09:17.925Z,24.75
2023-02-06T06:10:20.616Z,26.00
2023-02-06T06:11:23.280Z,25.75
2023-02-06T06:12:26.020Z,30.00
2023-02-06T06:13:34.987Z,28.75
2023-02-06T06:14:37.648Z,31.00
2023-02-06T06:15:40.272Z,30.00
2023-02-06T06:16:43.778Z,26.25
2023-02-06T06:17:46.454Z,22.00
2023-02-06T06:18:56.133Z,21.00
2023-02-06T06:19:58.808Z,21.00
2023-02-06T06:21:01.427Z,21.00
2023-02-06T06:22:04.042Z,21.00
2023-02-06T06:23:06.750Z,21.75
2023-02-06T06:24:16.041Z,21.50
2023-02-06T06:25:18.879Z,21.00
2023-02-06T06:26:21.643Z,22.00
2023-02-06T06:27:25.074Z,21.75
2023-02-06T06:28:28.112Z,22.00
2023-02-06T06:29:38.044Z,20.75
2023-02-06T06:30:40.731Z,21.25
2023-02-06T06:31:43.407Z,23.75
2023-02-06T06:32:46.093Z,25.75
2023-02-06T06:33:48.799Z,30.75
2023-02-06T06:34:58.059Z,31.25
2023-02-06T06:36:01.618Z,34.00
2023-02-06T06:37:11.112Z,33.00
2023-02-06T06:38:20.409Z,35.50
2023-02-06T06:39:23.083Z,40.00
2023-02-06T06:40:32.212Z,42.75
2023-02-06T06:41:34.974Z,39.25
2023-02-06T06:42:37.698Z,35.00
2023-02-06T06:43:40.616Z,34.00
2023-02-06T06:44:43.265Z,33.00
2023-02-06T06:45:52.165Z,29.25
2023-02-06T06:46:54.863Z,30.50
2023-02-06T06:47:57.568Z,30.25
2023-02-06T06:49:00.165Z,29.00
2023-02-06T06:50:02.822Z,26.75
2023-02-06T06:51:13.083Z,26.00
2023-02-06T06:52:24.404Z,27.50
2023-02-06T06:53:27.886Z,26.00
2023-02-06T06:54:30.547Z,22.00
2023-02-06T06:55:33.215Z,23.50
2023-02-06T06:56:42.105Z,27.50
2023-02-06T06:57:44.757Z,28.50
2023-02-06T06:58:47.461Z,27.25
2023-02-06T06:59:50.679Z,26.00
2023-02-06T07:00:54.521Z,29.50
2023-02-06T07:02:04.084Z,29.00
2023-02-06T07:03:06.790Z,31.50
2023-02-06T07:04:09.509Z,31.25
2023-02-06T07:05:12.396Z,33.50
2023-02-06T07:06:15.812Z,33.50
2023-02-06T07:07:25.154Z,33.00
2023-02-06T07:08:30.987Z,31.00
2023-02-06T07:09:33.700Z,33.00
2023-02-06T07:10:36.371Z,33.00
2023-02-06T07:11:39.040Z,31.00
2023-02-06T07:12:48.138Z,29.00
2023-02-06T07:13:51.010Z,26.00
2023-02-06T07:14:53.690Z,25.50
2023-02-06T07:15:56.371Z,24.00
2023-02-06T07:17:00.970Z,24.25
2023-02-06T07:18:11.720Z,26.00
2023-02-06T07:19:14.682Z,27.00
2023-02-06T07:20:17.719Z,28.25
2023-02-06T07:21:21.023Z,25.00
2023-02-06T07:22:23.781Z,24.00
2023-02-06T07:23:33.129Z,27.00
2023-02-06T07:24:35.748Z,29.00
2023-02-06T07:25:38.527Z,30.00
2023-02-06T07:26:42.618Z,30.00
2023-02-06T07:27:45.303Z,30.00
2023-02-06T07:28:57.114Z,30.50
2023-02-06T07:30:00.804Z,30.50
2023-02-06T07:31:05.392Z,29.00
2023-02-06T07:32:08.174Z,27.50
2023-02-06T07:33:10.886Z,26.00
2023-02-06T07:34:20.159Z,27.00
2023-02-06T07:35:22.827Z,26.00
2023-02-06T07:36:25.431Z,27.00
2023-02-06T07:37:34.254Z,29.00
2023-02-06T07:38:43.634Z,26.00
2023-02-06T07:39:53.163Z,26.00
2023-02-06T07:40:55.809Z,27.00
2023-02-06T07:41:58.502Z,24.50
2023-02-06T07:43:01.128Z,23.25
2023-02-06T07:44:03.727Z,22.00
2023-02-06T07:45:13.178Z,22.50
2023-02-06T07:46:16.242Z,23.00
2023-02-06T07:47:18.968Z,24.25
2023-02-06T07:48:21.582Z,23.00
2023-02-06T07:49:24.390Z,22.75
2023-02-06T07:50:33.215Z,22.00
2023-02-06T07:51:35.859Z,20.00
2023-02-06T07:52:38.670Z,19.50
2023-02-06T07:53:41.271Z,20.00
2023-02-06T07:54:44.157Z,22.50
2023-02-06T07:55:53.187Z,20.00
2023-02-06T07:56:55.820Z,20.50
2023-02-06T07:57:58.520Z,19.50
2023-02-06T07:59:01.189Z,23.00
2023-02-06T08:00:06.294Z,21.00
2023-02-06T08:01:16.334Z,23.00
2023-02-06T08:02:19.006Z,22.75
2023-02-06T08:03:22.092Z,22.50
2023-02-06T08:04:24.746Z,22.25
2023-02-06T08:05:27.425Z,20.00
2023-02-06T08:06:36.237Z,21.00
2023-02-06T08:07:39.057Z,22.25
2023-02-06T08:08:42.640Z,23.00
2023-02-06T08:09:45.343Z,23.50
2023-02-06T08:10:48.097Z,25.00
2023-02-06T08:11:57.213Z,21.00
2023-02-06T08:12:59.843Z,21.00
2023-02-06T08:14:03.636Z,23.75
2023-02-06T08:15:06.552Z,23.50
2023-02-06T08:16:14.070Z,23.00
2023-02-06T08:17:23.246Z,23.50
2023-02-06T08:18:25.894Z,23.00
2023-02-06T08:19:28.572Z,24.00
2023-02-06T08:20:31.227Z,24.00
2023-02-06T08:21:34.180Z,22.25
2023-02-06T08:22:43.260Z,22.00
2023-02-06T08:23:46.598Z,20.75
2023-02-06T08:24:49.318Z,24.00
2023-02-06T08:25:51.950Z,27.25
2023-02-06T08:26:54.569Z,24.50
2023-02-06T08:28:04.317Z,25.00
2023-02-06T08:29:08.584Z,22.50
2023-02-06T08:30:11.894Z,21.00
2023-02-06T08:31:25.244Z,22.25
2023-02-06T08:32:33.612Z,22.75
2023-02-06T08:33:42.327Z,24.00
2023-02-06T08:34:45.626Z,25.00
2023-02-06T08:35:48.227Z,24.00
2023-02-06T08:36:50.898Z,22.75
2023-02-06T08:38:01.975Z,22.00
2023-02-06T08:39:20.282Z,21.00
2023-02-06T08:40:22.970Z,22.00
2023-02-06T08:41:28.495Z,21.00
2023-02-06T08:42:31.286Z,20.75
2023-02-06T08:43:33.925Z,23.00
2023-02-06T08:44:43.310Z,21.00
2023-02-06T08:45:52.844Z,19.00
2023-02-06T08:47:08.953Z,20.00
2023-02-06T08:48:12.517Z,18.00
2023-02-06T08:49:18.116Z,19.50
2023-02-06T08:50:27.327Z,17.00
2023-02-06T08:51:30.168Z,17.00
2023-02-06T08:52:32.829Z,16.25
2023-02-06T08:53:35.771Z,18.00
2023-02-06T08:54:38.986Z,19.50
2023-02-06T08:55:48.323Z,17.75
2023-02-06T08:56:52.810Z,18.50
2023-02-06T08:57:55.932Z,17.50
2023-02-06T08:59:03.098Z,18.50
2023-02-06T09:00:06.288Z,21.00
2023-02-06T09:01:17.427Z,17.25
2023-02-06T09:02:20.118Z,16.00
2023-02-06T09:03:24.104Z,17.25
2023-02-06T09:04:29.984Z,19.75
2023-02-06T09:05:33.384Z,20.50
2023-02-06T09:06:43.416Z,20.50
2023-02-06T09:07:46.063Z,20.00
2023-02-06T09:08:48.863Z,20.00
2023-02-06T09:09:51.586Z,17.50
2023-02-06T09:10:54.211Z,17.50
2023-02-06T09:12:05.401Z,15.50
2023-02-06T09:13:08.077Z,18.00
2023-02-06T09:14:15.758Z,18.25
2023-02-06T09:15:18.556Z,18.00
2023-02-06T09:16:22.107Z,20.50
2023-02-06T09:17:31.389Z,18.50
2023-02-06T09:18:34.477Z,19.00
2023-02-06T09:19:37.089Z,18.00
2023-02-06T09:20:39.725Z,21.00
2023-02-06T09:21:43.002Z,19.00
2023-02-06T09:22:53.402Z,19.25
2023-02-06T09:24:00.113Z,19.00
2023-02-06T09:25:02.813Z,20.00
2023-02-06T09:26:05.996Z,19.00
2023-02-06T09:27:08.620Z,18.00
2023-02-06T09:28:18.464Z,17.25
2023-02-06T09:29:21.253Z,18.75
2023-02-06T09:30:24.434Z,20.00
2023-02-06T09:31:31.595Z,20.50
2023-02-06T09:32:34.306Z,20.00
2023-02-06T09:33:45.420Z,19.00
2023-02-06T09:34:49.111Z,18.00
2023-02-06T09:35:51.840Z,18.00
2023-02-06T09:36:55.591Z,17.50
2023-02-06T09:38:04.559Z,17.50
2023-02-06T09:39:20.436Z,18.25
2023-02-06T09:40:28.040Z,21.00
2023-02-06T09:41:56.919Z,21.00
2023-02-06T09:43:00.826Z,21.25
2023-02-06T09:44:08.983Z,23.00
2023-02-06T09:45:34.685Z,21.50
2023-02-06T09:46:47.102Z,22.50
2023-02-06T09:47:55.209Z,21.00
2023-02-06T09:49:01.685Z,21.00
2023-02-06T09:50:24.487Z,20.75
2023-02-06T09:51:45.472Z,22.00
2023-02-06T09:52:54.022Z,21.75
2023-02-06T09:54:11.870Z,21.00
2023-02-06T09:55:39.552Z,20.00
2023-02-06T09:56:47.820Z,20.00
2023-02-06T09:58:28.554Z,21.00
2023-02-06T09:59:36.655Z,21.50
2023-02-06T10:01:03.457Z,19.00
2023-02-06T10:02:38.088Z,18.00
2023-02-06T10:03:40.736Z,18.00
2023-02-06T10:04:48.385Z,18.00
2023-02-06T10:06:15.462Z,17.00
2023-02-06T10:07:26.885Z,18.00
2023-02-06T10:08:33.736Z,18.00
2023-02-06T10:09:42.593Z,19.00
2023-02-06T10:11:00.730Z,18.00
2023-02-06T10:12:16.448Z,16.00
2023-02-06T10:13:27.568Z,17.25
2023-02-06T10:14:50.468Z,19.50
2023-02-06T10:15:58.896Z,18.00
2023-02-06T10:17:12.520Z,17.00
2023-02-06T10:18:42.245Z,21.50
2023-02-06T10:19:54.016Z,21.75
2023-02-06T10:21:01.380Z,26.00
2023-02-06T10:22:10.406Z,27.25
2023-02-06T10:23:50.525Z,26.00
2023-02-06T10:25:17.992Z,29.75
2023-02-06T10:26:20.816Z,30.25
2023-02-06T10:27:23.489Z,29.50
2023-02-06T10:28:29.276Z,31.00
2023-02-06T10:29:41.575Z,26.75
2023-02-06T10:31:02.312Z,22.00
2023-02-06T10:32:18.707Z,21.25
2023-02-06T10:33:40.197Z,19.00
2023-02-06T10:35:15.511Z,21.50
2023-02-06T10:36:27.137Z,22.00
2023-02-06T10:37:50.603Z,20.00
2023-02-06T10:39:19.162Z,20.00
2023-02-06T10:40:46.521Z,20.25
2023-02-06T10:42:04.331Z,20.50
2023-02-06T10:43:31.579Z,16.00
2023-02-06T10:44:52.941Z,18.50
2023-02-06T10:46:27.742Z,20.75
2023-02-06T10:47:50.960Z,18.50
2023-02-06T10:49:02.590Z,20.50
2023-02-06T10:50:28.010Z,18.00
2023-02-06T10:51:41.569Z,17.00
2023-02-06T10:52:44.823Z,17.00
2023-02-06T10:53:54.356Z,18.00
2023-02-06T10:55:00.458Z,17.50
2023-02-06T10:56:09.491Z,16.50
2023-02-06T10:57:26.579Z,16.75
2023-02-06T10:58:43.732Z,17.00
2023-02-06T10:59:49.522Z,16.75
2023-02-06T11:00:53.222Z,18.00
2023-02-06T11:02:21.143Z,17.00
2023-02-06T11:03:39.851Z,17.00
2023-02-06T11:04:52.785Z,18.50
2023-02-06T11:05:56.581Z,17.00
2023-02-06T11:07:03.487Z,18.75
2023-02-06T11:08:12.177Z,17.75
2023-02-06T11:09:23.606Z,20.00
2023-02-06T11:10:27.944Z,18.00
2023-02-06T11:11:37.225Z,17.00
2023-02-06T11:12:47.639Z,17.00
2023-02-06T11:14:07.948Z,17.00
2023-02-06T11:15:32.665Z,16.75
2023-02-06T11:16:38.560Z,16.00
2023-02-06T11:17:41.613Z,17.00
2023-02-06T11:18:46.469Z,17.00
2023-02-06T11:19:52.743Z,16.25
2023-02-06T11:21:02.673Z,14.25
2023-02-06T11:22:52.278Z,18.50
2023-02-06T11:24:10.915Z,19.00
2023-02-06T11:25:21.788Z,16.50
2023-02-06T11:26:30.608Z,16.50
2023-02-06T11:27:35.853Z,16.50
2023-02-06T11:28:50.051Z,43.25
2023-02-06T11:29:53.270Z,40.50
2023-02-06T11:30:59.563Z,29.50
2023-02-06T11:32:14.611Z,21.50
2023-02-06T11:33:26.304Z,20.00
2023-02-06T11:34:36.701Z,31.50
2023-02-06T11:35:47.255Z,58.50
2023-02-06T11:36:57.619Z,113.00
2023-02-06T11:38:22.672Z,77.00
2023-02-06T11:39:25.365Z,50.00
2023-02-06T11:40:29.269Z,34.25
2023-02-06T11:41:32.869Z,25.00
2023-02-06T11:42:37.413Z,20.00
2023-02-06T11:43:49.651Z,19.25
2023-02-06T11:44:54.194Z,19.00
2023-02-06T11:46:21.656Z,20.50
2023-02-06T11:47:37.198Z,17.00
2023-02-06T11:48:44.184Z,20.50
2023-02-06T11:49:53.749Z,20.50
2023-02-06T11:50:56.405Z,19.00
2023-02-06T11:52:01.092Z,19.00
2023-02-06T11:53:17.970Z,18.75
2023-02-06T11:54:47.742Z,24.50
2023-02-06T11:56:05.068Z,23.75
2023-02-06T11:57:20.750Z,18.00
2023-02-06T11:58:27.557Z,18.75
2023-02-06T11:59:38.739Z,20.00
2023-02-06T12:00:58.135Z,20.00
2023-02-06T12:02:02.638Z,17.25
2023-02-06T12:03:06.415Z,17.00
2023-02-06T12:04:24.513Z,16.50
2023-02-06T12:05:39.486Z,18.25
2023-02-06T12:06:42.683Z,18.00
2023-02-06T12:08:01.139Z,19.00
2023-02-06T12:09:10.709Z,17.00
2023-02-06T12:10:25.794Z,16.50
2023-02-06T12:11:46.591Z,17.50
2023-02-06T12:13:01.309Z,16.00
2023-02-06T12:14:13.645Z,19.00
2023-02-06T12:15:46.059Z,16.00
2023-02-06T12:16:50.400Z,15.00
2023-02-06T12:18:00.311Z,16.00
2023-02-06T12:19:04.258Z,15.00
2023-02-06T12:20:30.727Z,16.50
2023-02-06T12:22:03.875Z,19.00
2023-02-06T12:23:28.846Z,16.00
2023-02-06T12:24:36.154Z,16.00
2023-02-06T12:25:43.015Z,19.50
2023-02-06T12:26:47.710Z,21.00
2023-02-06T12:27:58.821Z,20.00
2023-02-06T12:29:10.679Z,17.00
2023-02-06T12:30:28.279Z,15.00
2023-02-06T12:31:42.938Z,14.00
2023-02-06T12:32:52.120Z,16.25
2023-02-06T12:34:05.783Z,16.50
2023-02-06T12:35:15.668Z,20.00
2023-02-06T12:36:21.644Z,20.00
2023-02-06T12:37:41.239Z,20.00
2023-02-06T12:39:20.803Z,18.00
2023-02-06T12:40:39.919Z,15.75
2023-02-06T12:42:11.370Z,17.50
2023-02-06T12:43:16.776Z,16.00
2023-02-06T12:44:35.818Z,17.75
2023-02-06T12:45:41.498Z,18.50
2023-02-06T12:46:47.396Z,18.00
2023-02-06T12:48:03.893Z,18.00
2023-02-06T12:49:12.548Z,14.00
2023-02-06T12:50:29.814Z,16.75
2023-02-06T12:51:37.286Z,16.00
2023-02-06T12:52:48.812Z,16.50
2023-02-06T12:54:02.113Z,19.75
2023-02-06T12:55:19.849Z,22.25
2023-02-06T12:56:32.061Z,18.50
2023-02-06T12:57:36.483Z,18.00
2023-02-06T12:58:44.875Z,19.00
2023-02-06T12:59:59.343Z,19.00
2023-02-06T13:01:31.593Z,20.00
2023-02-06T13:02:54.590Z,19.00
2023-02-06T13:04:00.940Z,21.00
2023-02-06T13:05:08.791Z,21.00
2023-02-06T13:06:28.937Z,18.00
2023-02-06T13:07:33.951Z,18.25
2023-02-06T13:08:51.204Z,16.75
2023-02-06T13:10:02.250Z,19.00
2023-02-06T13:11:15.920Z,21.00
2023-02-06T13:12:27.942Z,20.00
2023-02-06T13:13:35.100Z,19.00
2023-02-06T13:14:40.027Z,16.00
2023-02-06T13:15:42.953Z,19.50
2023-02-06T13:17:01.868Z,22.00
2023-02-06T13:18:38.152Z,23.00
2023-02-06T13:19:40.749Z,21.75
2023-02-06T13:21:17.262Z,22.00
2023-02-06T13:22:51.917Z,20.25
2023-02-06T13:24:03.273Z,22.25
2023-02-06T13:25:28.914Z,26.25
2023-02-06T13:26:54.168Z,25.50
2023-02-06T13:28:05.979Z,22.00
2023-02-06T13:29:28.692Z,18.75
2023-02-06T13:30:31.446Z,17.00
2023-02-06T13:31:36.519Z,16.00
2023-02-06T13:32:46.304Z,15.00
2023-02-06T13:34:07.905Z,16.50
2023-02-06T13:35:31.880Z,18.00
2023-02-06T13:36:45.940Z,17.00
2023-02-06T13:37:57.048Z,17.00
2023-02-06T13:39:31.069Z,17.00
2023-02-06T13:40:36.394Z,19.00
2023-02-06T13:41:39.492Z,20.00
2023-02-06T13:42:50.276Z,18.75
2023-02-06T13:43:59.932Z,19.00
2023-02-06T13:45:12.058Z,22.00
2023-02-06T13:46:18.554Z,25.00
2023-02-06T13:47:29.584Z,25.25
2023-02-06T13:48:50.307Z,26.00
2023-02-06T13:50:32.065Z,24.00
2023-02-06T13:51:46.452Z,20.00
2023-02-06T13:53:08.106Z,17.00
2023-02-06T13:54:23.825Z,17.75
2023-02-06T13:55:55.088Z,18.00
2023-02-06T13:57:35.023Z,18.00
2023-02-06T13:58:47.428Z,18.00
2023-02-06T14:00:17.767Z,21.50
2023-02-06T14:01:33.106Z,24.50
2023-02-06T14:02:54.732Z,20.00
2023-02-06T14:03:59.415Z,18.25
2023-02-06T14:05:05.387Z,18.50
2023-02-06T14:06:11.084Z,19.00
2023-02-06T14:07:35.099Z,19.00
2023-02-06T14:09:05.426Z,20.75
2023-02-06T14:10:49.979Z,21.00
2023-02-06T14:12:46.090Z,23.25
2023-02-06T14:14:25.859Z,21.00
2023-02-06T14:15:31.169Z,19.00
2023-02-06T14:16:33.780Z,19.00
2023-02-06T14:18:15.072Z,18.50
2023-02-06T14:19:40.600Z,17.00
2023-02-06T14:20:55.370Z,17.00
2023-02-06T14:22:19.545Z,18.00
2023-02-06T14:23:37.118Z,18.00
2023-02-06T14:25:09.705Z,19.00
2023-02-06T14:26:31.253Z,20.00
2023-02-06T14:27:52.397Z,22.75
2023-02-06T14:29:04.101Z,22.00
2023-02-06T14:30:35.728Z,20.00
2023-02-06T14:32:29.528Z,21.00
2023-02-06T14:33:53.403Z,20.50
2023-02-06T14:35:28.097Z,21.00
2023-02-06T14:37:12.424Z,24.00
2023-02-06T14:39:03.674Z,20.00
2023-02-06T14:40:27.149Z,20.50
2023-02-06T14:41:34.245Z,23.50
2023-02-06T14:42:40.829Z,23.00
2023-02-06T14:43:45.914Z,23.00
2023-02-06T14:44:56.004Z,20.50
2023-02-06T14:46:12.452Z,21.00
2023-02-06T14:47:24.007Z,21.25
2023-02-06T14:48:52.919Z,25.00
2023-02-06T14:49:57.873Z,24.00
2023-02-06T14:51:00.662Z,27.25